Peterhead, United Kingdom
Current Conditions -  °F | °C
As of 12:50 PM on Monday 20 Oct 2014 (Local Time) from EGPD Reporting Station
Few Clouds Few Clouds  
Wind Chill: 55°   Ceiling: Unl
Heat Index: 55°   Visibility: 6mi
Dew Point: 48°   Wind: 12mph
Humidity: 77%   Direction: 200°SSW
Pressure: 29.65"   Gusts: NA
Location:  57.51°N, 1.78°W
Report Text: EGPD 201150Z 20010KT 9999 FEW030 13/09 Q1004 NOSIG
Loading
Personal Weather Stations






























Interactive Weather Map
Tropical Storm Tracking
New forecast layout! Learn more

10-Day Weather Forecast

Advertisements
Track Severe Weather on mobile